Time;durP1;ratioP1;P1;durP2;ratioP2;P2;SDS_P1;SDS_P2;PMS_P1;PMS_P2;Temp;Humidity;BMP_temperature;BMP_pressure;BME280_temperature;BME280_humidity;BME280_pressure;Samples;Min_cycle;Max_cycle;Signal;HPM_P1;HPM_P2
2023/04/16 00:00:02;;;;;;;9.60;8.90;;;;;;;9.78;72.31;92311.97;5110690;28;20244;-70
2023/04/16 00:02:28;;;;;;;9.20;8.60;;;;;;;9.43;71.80;92257.69;5110643;28;20230;-71
2023/04/16 00:04:53;;;;;;;8.33;7.73;;;;;;;9.47;72.85;92293.31;5111523;28;20220;-71
2023/04/16 00:07:18;;;;;;;9.90;9.20;;;;;;;9.58;72.89;92302.56;5111097;28;20191;-71
2023/04/16 00:09:45;;;;;;;9.00;8.50;;;;;;;9.75;72.00;92315.13;5112670;28;20216;-71
2023/04/16 00:12:10;;;;;;;8.87;8.27;;;;;;;9.71;72.27;92308.94;5114327;28;20215;-71
2023/04/16 00:14:35;;;;;;;10.03;9.37;;;;;;;9.89;71.10;92305.56;5110090;28;20188;-70
2023/04/16 00:17:01;;;;;;;10.63;9.93;;;;;;;9.88;71.63;92304.03;5111914;28;20184;-71
2023/04/16 00:19:26;;;;;;;10.43;9.83;;;;;;;9.82;72.66;92303.28;5111072;28;20194;-71
2023/04/16 00:21:52;;;;;;;9.80;9.10;;;;;;;9.69;74.45;92298.78;5110938;28;20224;-71
2023/04/16 00:24:17;;;;;;;9.90;9.20;;;;;;;9.74;75.01;92292.72;5110534;28;20184;-70
2023/04/16 00:26:44;;;;;;;8.87;8.47;;;;;;;9.63;75.03;92297.28;5112537;28;20226;-71
2023/04/16 00:29:10;;;;;;;9.80;9.40;;;;;;;9.53;74.97;92297.41;5109209;28;20269;-71
2023/04/16 00:31:35;;;;;;;9.60;9.00;;;;;;;9.64;74.24;92295.47;5109884;27;20220;-71
2023/04/16 00:34:01;;;;;;;10.60;10.07;;;;;;;9.60;74.15;92294.47;5109545;28;20247;-71
2023/04/16 00:36:27;;;;;;;8.70;8.27;;;;;;;9.69;73.79;92290.19;5110579;28;20246;-71
2023/04/16 00:38:53;;;;;;;10.43;9.73;;;;;;;9.75;73.70;92296.88;5111328;28;20191;-71
2023/04/16 00:41:19;;;;;;;10.57;9.97;;;;;;;9.66;73.25;92290.75;5110213;28;20252;-70
2023/04/16 00:43:44;;;;;;;10.07;9.47;;;;;;;9.54;73.04;92277.34;5109860;28;20184;-70
2023/04/16 00:46:10;;;;;;;10.33;9.83;;;;;;;9.51;73.91;92288.31;5104124;28;20240;-71
2023/04/16 00:48:38;;;;;;;10.57;10.07;;;;;;;9.27;74.94;92272.72;5110754;28;20185;-71
2023/04/16 00:51:05;;;;;;;10.20;9.70;;;;;;;9.38;76.28;92281.19;5090433;28;20259;-70
2023/04/16 00:53:31;;;;;;;9.40;8.80;;;;;;;9.37;75.75;92277.81;5088934;28;20200;-71
2023/04/16 00:55:56;;;;;;;9.63;9.13;;;;;;;9.32;76.45;92284.91;5103323;28;20287;-70
2023/04/16 00:58:22;;;;;;;9.53;9.07;;;;;;;9.22;76.93;92282.41;5109435;28;20494;-71
2023/04/16 01:00:48;;;;;;;9.40;8.90;;;;;;;9.23;76.56;92289.19;5110394;28;20254;-71
2023/04/16 01:03:13;;;;;;;10.33;9.57;;;;;;;9.35;74.68;92295.53;5109535;28;20217;-70
2023/04/16 01:05:39;;;;;;;9.50;9.00;;;;;;;9.00;75.96;92261.28;5108979;28;20235;-70
2023/04/16 01:08:05;;;;;;;10.17;9.67;;;;;;;8.97;76.65;92261.84;5109928;28;20210;-71
2023/04/16 01:10:30;;;;;;;10.13;9.40;;;;;;;8.98;77.54;92269.38;5110422;27;20287;-71
2023/04/16 01:12:56;;;;;;;9.80;9.33;;;;;;;9.06;76.82;92291.44;5109886;28;20180;-71
2023/04/16 01:15:21;;;;;;;9.83;9.33;;;;;;;8.94;78.04;92281.41;5110988;27;20219;-71
2023/04/16 01:17:47;;;;;;;10.23;9.60;;;;;;;8.81;78.34;92274.25;5110210;28;20188;-71
2023/04/16 01:20:12;;;;;;;8.97;8.57;;;;;;;8.95;78.18;92285.56;5109938;28;20253;-71
2023/04/16 01:22:38;;;;;;;8.97;8.57;;;;;;;8.99;77.85;92280.59;5109501;28;20202;-71
2023/04/16 01:25:03;;;;;;;9.53;8.97;;;;;;;8.93;77.39;92292.09;5108995;28;20226;-71
2023/04/16 01:27:30;;;;;;;10.33;9.70;;;;;;;9.01;76.83;92284.44;5109331;28;20192;-71
2023/04/16 01:29:55;;;;;;;9.53;8.97;;;;;;;8.90;76.83;92279.63;5108881;28;20207;-71
2023/04/16 01:32:21;;;;;;;10.57;9.73;;;;;;;8.98;75.56;92284.25;5109112;28;20219;-71
2023/04/16 01:34:46;;;;;;;10.23;9.57;;;;;;;8.95;75.18;92274.38;5108759;28;20226;-71
2023/04/16 01:37:12;;;;;;;9.50;9.10;;;;;;;8.86;75.38;92270.81;5108959;28;20180;-70
2023/04/16 01:39:37;;;;;;;9.53;9.03;;;;;;;8.77;76.40;92270.66;5109063;28;20195;-72
2023/04/16 01:42:03;;;;;;;9.77;9.27;;;;;;;8.74;76.47;92267.81;5109460;28;20526;-71
2023/04/16 01:44:29;;;;;;;10.73;10.00;;;;;;;8.73;76.54;92256.63;5108331;28;20259;-71
2023/04/16 01:46:55;;;;;;;11.53;10.83;;;;;;;8.75;77.17;92264.16;5108859;28;20171;-70
2023/04/16 01:49:20;;;;;;;11.97;11.17;;;;;;;8.86;77.05;92257.81;5108070;28;20191;-72
2023/04/16 01:51:46;;;;;;;10.00;9.23;;;;;;;8.74;78.12;92263.41;5107906;28;20172;-71
2023/04/16 01:54:11;;;;;;;10.17;9.37;;;;;;;8.81;77.98;92252.66;5109769;28;20191;-71
2023/04/16 01:56:37;;;;;;;9.57;8.93;;;;;;;8.78;78.29;92253.22;5108497;28;20228;-71
2023/04/16 01:59:02;;;;;;;10.37;9.47;;;;;;;8.75;78.61;92253.75;5108814;28;20176;-70
2023/04/16 02:01:28;;;;;;;9.77;9.27;;;;;;;8.68;78.78;92248.88;5108383;27;20265;-71
2023/04/16 02:03:53;;;;;;;11.00;10.33;;;;;;;8.73;79.09;92255.88;5109181;28;20192;-71
2023/04/16 02:06:18;;;;;;;9.50;9.00;;;;;;;8.90;78.27;92253.63;5107989;28;20254;-71
2023/04/16 02:08:44;;;;;;;10.50;9.70;;;;;;;8.79;78.20;92244.34;5109087;28;20215;-71
2023/04/16 02:11:09;;;;;;;11.77;10.97;;;;;;;8.91;78.05;92257.75;5109220;28;20232;-72
2023/04/16 02:13:35;;;;;;;10.83;10.03;;;;;;;8.89;77.70;92247.63;5109983;28;20202;-71
2023/04/16 02:16:01;;;;;;;10.47;9.77;;;;;;;8.93;78.14;92255.66;5109957;28;20247;-70
2023/04/16 02:18:26;;;;;;;9.93;9.43;;;;;;;9.00;77.53;92251.66;5111387;28;20259;-71
2023/04/16 02:20:52;;;;;;;10.00;9.40;;;;;;;9.04;77.71;92257.84;5109050;27;20224;-71
2023/04/16 02:23:17;;;;;;;9.10;8.57;;;;;;;8.89;79.00;92247.63;5109779;28;20192;-71
2023/04/16 02:25:44;;;;;;;10.90;10.13;;;;;;;8.91;79.00;92242.13;5109113;28;20261;-70
2023/04/16 02:28:14;;;;;;;9.67;9.20;;;;;;;8.98;79.09;92250.41;5112250;28;20180;-70
2023/04/16 02:30:40;;;;;;;9.77;9.20;;;;;;;8.86;78.50;92229.16;5115434;28;20220;-71
2023/04/16 02:33:08;;;;;;;9.60;9.00;;;;;;;9.10;77.76;92246.38;5110124;28;20180;-71
2023/04/16 02:35:34;;;;;;;12.03;9.10;;;;;;;9.02;78.26;92248.78;5108730;28;20251;-71
2023/04/16 02:37:59;;;;;;;10.40;9.60;;;;;;;9.06;77.73;92245.34;5113460;28;20206;-71
2023/04/16 02:40:25;;;;;;;11.60;10.70;;;;;;;9.12;76.87;92243.47;5112262;28;20221;-71
2023/04/16 02:42:52;;;;;;;11.10;10.20;;;;;;;9.00;77.38;92235.25;5112840;28;20267;-71
2023/04/16 02:45:17;;;;;;;9.60;9.10;;;;;;;8.99;76.70;92239.72;5112797;28;20238;-70
2023/04/16 02:47:43;;;;;;;10.10;9.60;;;;;;;9.00;76.75;92232.66;5114176;28;20808;-71
2023/04/16 02:50:08;;;;;;;9.67;9.27;;;;;;;8.96;76.83;92235.06;5110545;27;20278;-70
2023/04/16 02:52:34;;;;;;;9.80;9.10;;;;;;;8.67;77.66;92210.88;5111781;28;20199;-70
2023/04/16 02:54:59;;;;;;;9.20;8.87;;;;;;;8.53;78.70;92191.03;5112625;28;20223;-70
2023/04/16 02:57:25;;;;;;;9.70;9.20;;;;;;;8.78;78.26;92227.94;5112066;28;20196;-71
2023/04/16 02:59:50;;;;;;;11.03;9.90;;;;;;;8.77;77.93;92226.41;5112426;27;20771;-72
2023/04/16 03:02:16;;;;;;;9.93;9.33;;;;;;;8.86;78.29;92234.38;5112243;28;20236;-71
2023/04/16 03:04:41;;;;;;;9.27;8.50;;;;;;;8.71;78.08;92229.34;5112937;27;20243;-71
2023/04/16 03:07:08;;;;;;;9.30;8.90;;;;;;;8.73;78.57;92216.84;5113226;28;20215;-71
2023/04/16 03:09:34;;;;;;;9.77;9.07;;;;;;;8.79;79.01;92226.13;5111276;28;20191;-72
2023/04/16 03:12:03;;;;;;;9.53;9.03;;;;;;;8.81;79.31;92222.19;5111941;28;20188;-71
2023/04/16 03:14:29;;;;;;;10.43;9.70;;;;;;;8.82;78.48;92234.19;5112263;28;20188;-71
2023/04/16 03:16:55;;;;;;;9.37;8.93;;;;;;;8.85;78.29;92230.22;5112955;28;20655;-72
2023/04/16 03:19:20;;;;;;;10.43;9.93;;;;;;;8.99;77.73;92239.72;5112013;28;20196;-72
2023/04/16 03:21:46;;;;;;;9.13;8.57;;;;;;;8.95;77.63;92235.34;5111739;28;20206;-72
2023/04/16 03:24:12;;;;;;;9.33;8.70;;;;;;;8.88;78.64;92237.47;5110486;28;20216;-72
2023/04/16 03:26:37;;;;;;;9.60;9.10;;;;;;;8.71;78.62;92224.13;5111620;28;20204;-72
2023/04/16 03:29:02;;;;;;;9.70;9.30;;;;;;;8.98;78.78;92229.56;5112620;28;20176;-70
2023/04/16 03:31:28;;;;;;;12.23;9.07;;;;;;;9.15;78.44;92237.72;5112958;28;20227;-71
2023/04/16 03:33:53;;;;;;;9.77;9.27;;;;;;;8.90;77.88;92217.16;5112118;28;20201;-71
2023/04/16 03:36:19;;;;;;;10.43;9.93;;;;;;;8.99;78.51;92224.09;5094260;28;20228;-71
2023/04/16 03:38:44;;;;;;;9.97;9.23;;;;;;;9.20;77.59;92241.03;5090579;28;20188;-70
2023/04/16 03:41:10;;;;;;;10.13;9.53;;;;;;;9.13;77.84;92232.00;5105858;28;20240;-71
2023/04/16 03:43:35;;;;;;;9.13;8.73;;;;;;;8.93;77.53;92214.00;5111616;28;20184;-71
2023/04/16 03:46:01;;;;;;;8.53;8.03;;;;;;;9.10;76.73;92240.38;5110840;27;20231;-71
2023/04/16 03:48:26;;;;;;;8.53;8.07;;;;;;;9.11;76.03;92247.13;5110671;28;21704;-71
2023/04/16 03:50:51;;;;;;;9.23;8.60;;;;;;;9.17;76.55;92244.19;5109173;28;20226;-71
2023/04/16 03:53:17;;;;;;;8.97;8.67;;;;;;;9.00;78.46;92243.06;5110885;28;20259;-71
2023/04/16 03:55:42;;;;;;;9.80;9.30;;;;;;;8.93;79.16;92246.03;5110949;28;20281;-71
2023/04/16 03:58:08;;;;;;;9.13;8.67;;;;;;;8.94;79.39;92246.78;5111273;28;20227;-71
2023/04/16 04:00:33;;;;;;;9.37;8.97;;;;;;;8.74;79.24;92231.38;5111051;27;20216;-71
2023/04/16 04:02:59;;;;;;;9.27;8.87;;;;;;;8.78;80.57;92246.16;5110589;28;20278;-72
2023/04/16 04:05:24;;;;;;;7.93;7.57;;;;;;;8.82;80.18;92254.22;5110649;28;20220;-71
2023/04/16 04:07:50;;;;;;;9.70;9.20;;;;;;;8.89;80.54;92254.66;5110790;28;20720;-71
2023/04/16 04:10:15;;;;;;;12.40;11.33;;;;;;;8.93;80.88;92253.84;5111546;27;20229;-70
2023/04/16 04:12:41;;;;;;;11.90;10.90;;;;;;;8.93;81.24;92260.88;5111046;28;20192;-71
2023/04/16 04:15:07;;;;;;;10.03;9.43;;;;;;;9.01;80.36;92252.44;5111259;28;20240;-71
2023/04/16 04:17:33;;;;;;;12.93;11.67;;;;;;;8.99;80.83;92255.34;5111411;28;20239;-72
2023/04/16 04:19:58;;;;;;;12.00;10.90;;;;;;;9.15;80.03;92261.91;5110083;28;20224;-72
2023/04/16 04:22:24;;;;;;;12.53;11.30;;;;;;;9.01;80.57;92255.06;5110352;28;20204;-71
2023/04/16 04:24:49;;;;;;;11.13;10.20;;;;;;;9.08;80.83;92265.91;5110363;28;20237;-71
2023/04/16 04:27:14;;;;;;;15.57;13.13;;;;;;;9.25;80.12;92280.03;5110691;28;20212;-70
2023/04/16 04:29:40;;;;;;;13.60;12.27;;;;;;;9.25;80.71;92266.22;5111686;27;20306;-71
2023/04/16 04:32:05;;;;;;;13.30;12.03;;;;;;;9.22;80.45;92264.19;5110387;28;20180;-71
2023/04/16 04:34:30;;;;;;;14.77;13.30;;;;;;;9.44;80.06;92280.06;5111099;28;20180;-71
2023/04/16 04:36:56;;;;;;;14.00;12.53;;;;;;;9.35;80.00;92276.53;5110321;28;20203;-71
2023/04/16 04:39:21;;;;;;;23.10;17.80;;;;;;;9.28;81.00;92289.09;5110338;27;20202;-72
2023/04/16 04:41:47;;;;;;;21.33;17.63;;;;;;;9.28;80.34;92273.47;5109897;28;20222;-72
2023/04/16 04:44:12;;;;;;;19.27;17.17;;;;;;;9.31;79.86;92283.34;5110528;28;20208;-72
2023/04/16 04:46:39;;;;;;;17.43;15.63;;;;;;;9.48;79.46;92289.66;5110165;27;20245;-71
2023/04/16 04:49:04;;;;;;;21.00;17.97;;;;;;;9.55;79.68;92299.75;5110921;28;20187;-72
2023/04/16 04:51:30;;;;;;;12.83;11.83;;;;;;;9.52;75.48;92285.44;5108269;28;20239;-72
2023/04/16 04:53:55;;;;;;;11.90;11.20;;;;;;;9.50;74.68;92269.31;5109912;28;20173;-72
2023/04/16 04:56:21;;;;;;;13.60;12.40;;;;;;;9.64;76.28;92274.59;5108091;28;20249;-71
2023/04/16 04:58:49;;;;;;;11.83;10.93;;;;;;;9.64;76.89;92296.25;5110857;28;20184;-72
2023/04/16 05:01:14;;;;;;;12.73;11.73;;;;;;;9.63;76.84;92280.88;5108027;28;20219;-72
2023/04/16 05:03:40;;;;;;;11.07;10.17;;;;;;;9.69;76.60;92279.75;5110723;28;20188;-72
2023/04/16 05:06:06;;;;;;;11.90;10.83;;;;;;;9.89;76.02;92295.13;5111236;28;20223;-72
2023/04/16 05:08:31;;;;;;;11.30;10.40;;;;;;;9.92;76.53;92294.56;5110770;28;20185;-76
2023/04/16 05:10:56;;;;;;;12.00;11.17;;;;;;;9.94;75.21;92274.22;5110952;28;20235;-76
2023/04/16 05:13:22;;;;;;;14.00;12.50;;;;;;;10.14;73.60;92294.03;5110594;28;20214;-75
2023/04/16 05:15:47;;;;;;;14.60;13.33;;;;;;;10.11;73.02;92287.56;5109453;27;20228;-76
2023/04/16 05:18:13;;;;;;;15.27;13.70;;;;;;;10.23;73.82;92287.09;5110157;28;20259;-77
2023/04/16 05:20:38;;;;;;;15.10;13.23;;;;;;;10.38;73.25;92286.91;5110447;28;20212;-77
2023/04/16 05:23:03;;;;;;;14.93;12.80;;;;;;;10.37;72.80;92283.50;5112743;28;20215;-76
2023/04/16 05:25:29;;;;;;;13.27;11.93;;;;;;;10.50;73.21;92288.00;5108007;28;20227;-77
2023/04/16 05:27:54;;;;;;;11.70;10.90;;;;;;;10.67;72.09;92269.97;5109914;28;20243;-75
2023/04/16 05:30:20;;;;;;;13.33;12.40;;;;;;;10.79;71.77;92272.09;5108990;28;20295;-75
2023/04/16 05:32:45;;;;;;;11.80;10.73;;;;;;;10.92;71.14;92295.66;5106531;28;20210;-75
2023/04/16 05:35:10;;;;;;;12.13;11.23;;;;;;;10.92;70.13;92295.66;5107797;28;20240;-71
2023/04/16 05:37:36;;;;;;;11.63;10.47;;;;;;;10.55;69.80;92253.97;5108345;28;20176;-71
2023/04/16 05:40:01;;;;;;;11.17;10.27;;;;;;;10.85;69.19;92297.84;5108008;28;20283;-70
2023/04/16 05:42:27;;;;;;;11.80;10.90;;;;;;;10.91;68.69;92291.47;5107796;28;20221;-71
2023/04/16 05:44:52;;;;;;;10.70;10.10;;;;;;;10.96;67.34;92293.22;5107563;28;20284;-72
2023/04/16 05:47:17;;;;;;;11.50;10.70;;;;;;;10.92;66.83;92297.47;5108885;28;20200;-71
2023/04/16 05:49:43;;;;;;;11.20;10.27;;;;;;;10.90;68.72;92300.38;5106400;27;20229;-72
2023/04/16 05:52:08;;;;;;;11.00;10.20;;;;;;;10.48;68.59;92295.34;5108277;28;20188;-72
2023/04/16 05:54:34;;;;;;;11.87;11.07;;;;;;;10.91;67.54;92295.94;5107465;28;20181;-72
2023/04/16 05:57:00;;;;;;;11.73;10.83;;;;;;;11.19;66.46;92297.53;5107405;28;20202;-72
2023/04/16 05:59:26;;;;;;;12.70;11.37;;;;;;;11.32;66.53;92301.97;5106933;27;20196;-72
2023/04/16 06:01:51;;;;;;;12.13;11.27;;;;;;;11.28;66.27;92301.78;5110058;28;20231;-72
2023/04/16 06:04:16;;;;;;;11.43;10.50;;;;;;;11.34;65.66;92284.19;5107518;28;20195;-72
2023/04/16 06:06:42;;;;;;;11.73;10.90;;;;;;;11.73;64.24;92300.16;5106621;27;20227;-72
2023/04/16 06:09:07;;;;;;;11.17;10.03;;;;;;;11.91;64.21;92299.25;5107978;28;20202;-72
2023/04/16 06:11:33;;;;;;;11.77;10.83;;;;;;;12.34;63.38;92292.53;5108834;28;20219;-72
2023/04/16 06:13:58;;;;;;;11.27;10.30;;;;;;;12.44;62.79;92287.09;5113193;28;20241;-72
2023/04/16 06:16:23;;;;;;;12.23;11.20;;;;;;;12.09;63.74;92294.97;5111324;27;20228;-71
2023/04/16 06:18:49;;;;;;;11.13;10.33;;;;;;;11.97;63.47;92247.63;5113017;28;20198;-71
2023/04/16 06:21:15;;;;;;;11.60;10.63;;;;;;;12.18;64.29;92290.56;5112354;28;20237;-72
2023/04/16 06:23:40;;;;;;;10.87;10.27;;;;;;;12.71;61.04;92286.97;5112199;28;20191;-73
2023/04/16 06:26:06;;;;;;;13.67;11.70;;;;;;;12.38;61.52;92280.44;5110378;28;20220;-73
2023/04/16 06:28:31;;;;;;;12.07;10.97;;;;;;;12.38;61.80;92258.69;5111012;28;20191;-73
2023/04/16 06:30:56;;;;;;;12.10;11.10;;;;;;;12.95;61.00;92284.78;5110993;28;20287;-72
2023/04/16 06:33:22;;;;;;;12.67;11.67;;;;;;;13.45;58.70;92290.59;5111710;28;20204;-71
2023/04/16 06:35:48;;;;;;;10.90;10.23;;;;;;;13.58;58.39;92276.63;5112107;28;20230;-69
2023/04/16 06:38:14;;;;;;;12.10;11.20;;;;;;;13.66;57.37;92289.00;5111967;28;20200;-71
2023/04/16 06:40:39;;;;;;;11.77;10.80;;;;;;;13.72;57.25;92279.13;5112527;27;20235;-73
2023/04/16 06:43:05;;;;;;;10.83;10.03;;;;;;;13.33;57.74;92260.78;5111671;28;20211;-71
2023/04/16 06:45:30;;;;;;;11.73;10.87;;;;;;;13.86;55.67;92266.66;5110579;28;20220;-73
2023/04/16 06:47:57;;;;;;;11.70;10.67;;;;;;;13.78;56.65;92294.41;5113327;28;20183;-73
2023/04/16 06:50:25;;;;;;;11.73;10.77;;;;;;;13.73;55.99;92289.31;5111864;28;20232;-72
2023/04/16 06:52:51;;;;;;;10.83;9.83;;;;;;;13.43;56.39;92244.78;5111931;28;20255;-72
2023/04/16 06:55:18;;;;;;;11.30;10.37;;;;;;;13.89;56.53;92310.66;5110754;27;20219;-71
2023/04/16 06:57:44;;;;;;;10.93;10.20;;;;;;;13.81;57.18;92293.81;5112096;28;20265;-73
2023/04/16 07:00:10;;;;;;;11.43;10.57;;;;;;;13.38;58.07;92295.53;5111612;27;20223;-71
2023/04/16 07:02:36;;;;;;;12.10;10.90;;;;;;;13.67;57.22;92298.41;5110542;28;20242;-73
2023/04/16 07:05:01;;;;;;;11.27;10.17;;;;;;;13.82;56.96;92299.84;5112256;28;20227;-70
2023/04/16 07:07:26;;;;;;;13.37;12.37;;;;;;;13.74;58.59;92288.22;5111014;28;20179;-70
2023/04/16 07:09:52;;;;;;;11.93;10.90;;;;;;;14.07;56.35;92307.00;5111499;28;20287;-71
2023/04/16 07:12:18;;;;;;;10.67;9.87;;;;;;;13.58;56.68;92292.34;5113140;28;20195;-72
2023/04/16 07:14:44;;;;;;;11.77;10.70;;;;;;;12.61;60.38;92304.75;5110518;28;20224;-73
2023/04/16 07:17:09;;;;;;;12.17;11.13;;;;;;;13.25;59.00;92312.13;5111320;28;20187;-71
2023/04/16 07:19:35;;;;;;;12.67;11.57;;;;;;;13.66;56.85;92291.63;5107984;28;20195;-73
2023/04/16 07:22:01;;;;;;;9.60;8.90;;;;;;;13.79;57.33;92303.81;5089615;28;20216;-70
2023/04/16 07:24:27;;;;;;;10.77;9.80;;;;;;;14.35;54.90;92298.53;5088503;28;20192;-71
2023/04/16 07:26:52;;;;;;;11.47;10.27;;;;;;;14.39;55.37;92307.38;5110975;28;20200;-70
2023/04/16 07:29:17;;;;;;;11.40;10.40;;;;;;;13.51;57.18;92299.13;5106692;28;20199;-72
2023/04/16 07:31:44;;;;;;;12.37;11.17;;;;;;;14.48;54.25;92302.88;5109378;28;20226;-72
2023/04/16 07:34:09;;;;;;;12.87;11.50;;;;;;;14.59;53.34;92307.81;5109012;28;20196;-71
2023/04/16 07:36:35;;;;;;;13.57;11.77;;;;;;;14.39;53.43;92288.97;5110722;28;20301;-72
2023/04/16 07:39:00;;;;;;;11.73;10.63;;;;;;;14.36;54.36;92288.81;5110987;28;20196;-71
2023/04/16 07:41:26;;;;;;;12.40;11.20;;;;;;;14.63;53.93;92293.75;5110418;28;20223;-73
2023/04/16 07:43:52;;;;;;;11.27;10.17;;;;;;;14.90;53.06;92309.19;5111909;28;20206;-72
2023/04/16 07:46:17;;;;;;;10.57;9.90;;;;;;;14.59;54.37;92313.84;5110094;27;20253;-72
2023/04/16 07:48:42;;;;;;;12.07;10.83;;;;;;;13.97;54.70;92304.66;5111897;28;20203;-69
2023/04/16 07:51:08;;;;;;;11.07;10.13;;;;;;;14.44;52.96;92296.69;5111898;28;20223;-69
2023/04/16 07:53:33;;;;;;;11.10;9.93;;;;;;;14.74;53.30;92318.63;5111537;28;20184;-71
2023/04/16 07:55:59;;;;;;;11.90;11.00;;;;;;;14.90;52.24;92303.94;5110434;27;20235;-69
2023/04/16 07:58:24;;;;;;;11.07;10.20;;;;;;;15.05;50.83;92300.06;5111018;28;20187;-70
2023/04/16 08:00:50;;;;;;;10.40;9.50;;;;;;;14.80;52.69;92308.75;5110421;27;20296;-69
2023/04/16 08:03:16;;;;;;;10.97;10.03;;;;;;;15.44;52.10;92312.97;5110939;28;20254;-68
2023/04/16 08:05:42;;;;;;;12.00;10.80;;;;;;;14.57;53.52;92299.50;5111554;28;20208;-74
2023/04/16 08:08:07;;;;;;;11.53;10.40;;;;;;;14.56;53.78;92284.78;5110803;28;20188;-75
2023/04/16 08:10:32;;;;;;;10.50;9.60;;;;;;;14.36;54.93;92284.34;5108723;28;20284;-74
2023/04/16 08:13:00;;;;;;;10.37;9.67;;;;;;;14.80;52.86;92298.97;5109686;28;20211;-72
2023/04/16 08:15:26;;;;;;;10.53;9.70;;;;;;;14.89;53.06;92310.28;5109340;28;20242;-76
2023/04/16 08:17:51;;;;;;;10.87;9.97;;;;;;;15.29;52.44;92316.06;5109501;28;20180;-77
2023/04/16 08:20:17;;;;;;;10.73;9.70;;;;;;;14.63;52.10;92290.38;5109172;27;20232;-75
2023/04/16 08:22:43;;;;;;;13.87;9.77;;;;;;;13.89;55.43;92300.94;5109081;28;20227;-74
2023/04/16 08:25:09;;;;;;;11.70;10.83;;;;;;;13.35;57.25;92284.88;5108843;28;20223;-73
2023/04/16 08:27:34;;;;;;;11.47;10.57;;;;;;;13.95;56.61;92262.97;5106629;28;20180;-73
2023/04/16 08:29:59;;;;;;;10.90;9.90;;;;;;;14.44;56.29;92295.94;5108382;28;20224;-73
2023/04/16 08:32:25;;;;;;;10.87;10.03;;;;;;;13.91;56.95;92298.00;5110337;28;20199;-74
2023/04/16 08:34:51;;;;;;;11.50;10.53;;;;;;;14.77;55.83;92298.84;5106804;27;20220;-70
2023/04/16 08:37:16;;;;;;;11.40;10.20;;;;;;;14.75;53.25;92282.63;5109620;28;20662;-70
2023/04/16 08:39:42;;;;;;;9.87;9.30;;;;;;;15.38;51.69;92303.69;5108845;28;20243;-73
2023/04/16 08:42:27;;;;;;;11.23;10.40;;;;;;;15.26;51.79;92290.41;5109598;28;20206;-72
2023/04/16 08:45:05;;;;;;;11.20;10.10;;;;;;;15.60;51.27;92279.78;5110642;28;20227;-69
2023/04/16 08:47:34;;;;;;;13.03;11.93;;;;;;;15.98;50.20;92291.06;5109108;28;20192;-69
2023/04/16 08:50:01;;;;;;;10.60;9.93;;;;;;;15.40;50.49;92267.31;5108795;28;20243;-71
2023/04/16 08:52:30;;;;;;;11.43;10.43;;;;;;;15.72;50.32;92287.78;5110610;28;20187;-70
2023/04/16 08:55:08;;;;;;;11.10;9.97;;;;;;;16.09;49.38;92279.81;5108938;28;20238;-68
2023/04/16 08:57:56;;;;;;;11.03;10.03;;;;;;;15.46;49.89;92269.47;5108946;28;20188;-67
2023/04/16 09:00:23;;;;;;;10.43;9.73;;;;;;;14.56;53.25;92234.88;5108135;28;20230;-71
2023/04/16 09:02:50;;;;;;;10.57;9.93;;;;;;;15.05;52.64;92285.03;5108874;28;20235;-70
2023/04/16 09:05:17;;;;;;;11.00;10.17;;;;;;;15.09;51.83;92279.91;5109985;28;20219;-69
2023/04/16 09:07:45;;;;;;;10.77;9.97;;;;;;;15.50;51.04;92280.88;5107451;28;21648;-70
2023/04/16 09:10:11;;;;;;;11.17;10.37;;;;;;;15.82;49.38;92293.47;5098296;28;20239;-69
2023/04/16 09:12:38;;;;;;;10.67;9.97;;;;;;;15.88;49.67;92288.78;5082781;28;20189;-69
2023/04/16 09:15:05;;;;;;;9.53;9.03;;;;;;;15.50;49.07;92265.09;5092618;28;20246;-67
2023/04/16 09:17:30;;;;;;;9.60;9.03;;;;;;;15.40;49.00;92289.16;5112234;28;20239;-67
2023/04/16 09:19:56;;;;;;;10.07;9.43;;;;;;;15.43;49.68;92280.63;5108446;28;20223;-68
2023/04/16 09:22:21;;;;;;;10.47;9.73;;;;;;;14.99;49.12;92275.00;5107636;28;20211;-65
2023/04/16 09:24:47;;;;;;;9.80;9.10;;;;;;;15.11;49.08;92278.53;5106697;28;20257;-67
2023/04/16 09:27:12;;;;;;;9.10;8.40;;;;;;;15.37;47.58;92275.81;5107874;28;20207;-66
2023/04/16 09:29:40;;;;;;;9.40;8.83;;;;;;;15.75;45.01;92281.88;5107242;28;20164;-67
2023/04/16 09:32:07;;;;;;;10.00;9.17;;;;;;;15.77;46.54;92279.69;5108169;27;20203;-70
2023/04/16 09:34:34;;;;;;;9.30;8.57;;;;;;;15.62;49.76;92277.59;5109404;28;20221;-69
2023/04/16 09:37:16;;;;;;;8.97;8.47;;;;;;;15.62;46.52;92280.22;5107613;28;20205;-68
2023/04/16 09:39:42;;;;;;;8.90;8.37;;;;;;;15.47;48.31;92264.97;5108641;28;20235;-67
2023/04/16 09:42:08;;;;;;;9.40;8.73;;;;;;;15.39;50.13;92260.53;5109618;28;20207;-66
2023/04/16 09:44:37;;;;;;;9.07;8.47;;;;;;;16.19;45.69;92270.75;5110361;28;20219;-67
2023/04/16 09:47:08;;;;;;;8.47;7.83;;;;;;;15.87;46.86;92274.84;5111007;28;20183;-68
2023/04/16 09:49:39;;;;;;;9.43;8.87;;;;;;;15.93;46.60;92259.63;5114976;28;20203;-69
2023/04/16 09:52:12;;;;;;;9.07;7.63;;;;;;;16.02;47.79;92271.66;5113124;28;20207;-67
2023/04/16 09:54:41;;;;;;;8.30;7.73;;;;;;;16.16;46.85;92260.88;5114108;27;20213;-68
2023/04/16 09:57:07;;;;;;;10.60;9.87;;;;;;;16.38;52.07;92263.19;5112610;28;20251;-73
2023/04/16 09:59:35;;;;;;;12.17;10.97;;;;;;;15.85;48.82;92257.81;5110494;27;20386;-75
2023/04/16 10:02:00;;;;;;;10.23;9.43;;;;;;;15.06;48.88;92201.69;5112576;28;20223;-75
2023/04/16 10:04:26;;;;;;;10.30;9.40;;;;;;;15.32;48.78;92247.03;5111351;27;20195;-75
2023/04/16 10:07:05;;;;;;;10.57;9.67;;;;;;;15.38;49.42;92253.69;5113226;28;20176;-75
2023/04/16 10:09:32;;;;;;;9.87;9.20;;;;;;;14.99;48.92;92248.72;5110902;28;20184;-75
2023/04/16 10:11:57;;;;;;;9.47;8.77;;;;;;;15.15;48.78;92252.38;5112461;28;20180;-75
2023/04/16 10:14:23;;;;;;;10.53;9.70;;;;;;;15.00;49.44;92245.78;5111203;28;20180;-75
2023/04/16 10:16:49;;;;;;;9.23;8.53;;;;;;;15.65;48.22;92240.13;5112604;28;20251;-75
2023/04/16 10:19:15;;;;;;;8.97;8.47;;;;;;;16.13;46.97;92231.75;5111386;28;20191;-75
2023/04/16 10:21:41;;;;;;;11.27;9.60;;;;;;;15.92;46.96;92234.41;5110272;28;20227;-75
2023/04/16 10:24:07;;;;;;;9.97;9.10;;;;;;;16.19;46.55;92235.78;5111192;28;20196;-75
2023/04/16 10:26:34;;;;;;;9.80;9.23;;;;;;;16.39;46.85;92235.75;5111575;28;20204;-75
2023/04/16 10:29:01;;;;;;;9.30;8.63;;;;;;;16.15;46.75;92219.84;5111123;28;20213;-75
2023/04/16 10:31:27;;;;;;;8.77;8.17;;;;;;;16.64;49.48;92232.16;5109843;28;20277;-75
2023/04/16 10:33:55;;;;;;;10.40;9.63;;;;;;;16.79;45.67;92226.28;5109647;28;20179;-75
2023/04/16 10:36:25;;;;;;;9.97;8.97;;;;;;;16.37;47.84;92230.03;5111511;27;20705;-74
2023/04/16 10:38:51;;;;;;;10.10;9.07;;;;;;;16.69;45.88;92231.97;5111466;28;20172;-75
2023/04/16 10:41:19;;;;;;;9.77;8.93;;;;;;;16.38;46.61;92228.94;5112640;27;20220;-75
2023/04/16 10:43:49;;;;;;;9.13;8.43;;;;;;;16.48;46.83;92225.19;5111766;28;20203;-75
2023/04/16 10:46:25;;;;;;;9.37;8.57;;;;;;;16.52;46.92;92218.94;5110538;27;20258;-75
2023/04/16 10:48:55;;;;;;;9.07;8.50;;;;;;;17.19;44.81;92229.91;5112062;28;20176;-75
2023/04/16 10:51:26;;;;;;;9.87;9.27;;;;;;;16.89;45.09;92219.81;5111290;27;20311;-75
2023/04/16 10:53:53;;;;;;;8.63;8.10;;;;;;;17.20;44.90;92231.44;5112315;28;20232;-75
2023/04/16 10:56:26;;;;;;;8.87;8.17;;;;;;;17.20;44.34;92222.72;5111160;27;20223;-75
2023/04/16 10:58:55;;;;;;;9.13;8.47;;;;;;;17.01;44.14;92206.69;5113572;28;20206;-75
2023/04/16 11:01:29;;;;;;;9.27;8.57;;;;;;;16.81;44.29;92220.69;5111198;28;20227;-75
2023/04/16 11:03:54;;;;;;;8.43;7.73;;;;;;;16.53;46.00;92223.09;5112348;28;20279;-75
2023/04/16 11:06:25;;;;;;;8.80;8.17;;;;;;;16.96;45.59;92220.84;5112085;28;20242;-75
2023/04/16 11:08:52;;;;;;;9.03;8.30;;;;;;;17.04;45.18;92222.59;5110719;28;20204;-75
2023/04/16 11:11:18;;;;;;;9.83;9.07;;;;;;;17.03;44.93;92210.50;5111004;27;20227;-75
2023/04/16 11:13:45;;;;;;;9.57;9.07;;;;;;;17.04;44.60;92209.41;5112447;28;20187;-75
2023/04/16 11:16:14;;;;;;;9.53;8.63;;;;;;;17.16;44.94;92220.00;5111472;28;20758;-76
2023/04/16 11:18:40;;;;;;;7.83;7.37;;;;;;;17.17;44.33;92189.88;5110851;28;20180;-74
2023/04/16 11:21:10;;;;;;;8.40;7.80;;;;;;;17.40;43.78;92209.47;5110412;28;20235;-75
2023/04/16 11:23:49;;;;;;;9.13;8.50;;;;;;;16.84;44.88;92212.13;5111692;28;20184;-75